sensor_id;sensor_type;location;lat;lon;timestamp;P1;durP1;ratioP1;P2;durP2;ratioP2
14272;SDS011;7220;49.450;11.052;2023-03-11T06:37:39;2.25;;;2.05;;
14272;SDS011;7220;49.450;11.052;2023-03-11T06:41:40;2.75;;;1.70;;
14272;SDS011;7220;49.450;11.052;2023-03-11T06:45:41;2.13;;;1.92;;
14272;SDS011;7220;49.450;11.052;2023-03-11T06:49:42;2.42;;;2.08;;
14272;SDS011;7220;49.450;11.052;2023-03-11T06:53:42;2.33;;;1.77;;
14272;SDS011;7220;49.450;11.052;2023-03-11T06:57:43;2.60;;;1.60;;
14272;SDS011;7220;49.450;11.052;2023-03-11T07:01:47;2.20;;;2.00;;
14272;SDS011;7220;49.450;11.052;2023-03-11T07:05:49;2.83;;;2.10;;
14272;SDS011;7220;49.450;11.052;2023-03-11T07:09:53;2.13;;;1.80;;
14272;SDS011;7220;49.450;11.052;2023-03-11T07:13:54;3.15;;;2.00;;
14272;SDS011;7220;49.450;11.052;2023-03-11T07:17:55;2.30;;;2.10;;
14272;SDS011;7220;49.450;11.052;2023-03-11T07:21:55;1.75;;;1.65;;
14272;SDS011;7220;49.450;11.052;2023-03-11T07:25:55;4.20;;;1.83;;
14272;SDS011;7220;49.450;11.052;2023-03-11T07:29:56;3.20;;;1.95;;
14272;SDS011;7220;49.450;11.052;2023-03-11T07:34:00;2.38;;;2.17;;
14272;SDS011;7220;49.450;11.052;2023-03-11T07:38:10;1.88;;;1.75;;
14272;SDS011;7220;49.450;11.052;2023-03-11T07:42:10;2.50;;;2.30;;
14272;SDS011;7220;49.450;11.052;2023-03-11T07:46:12;2.15;;;1.85;;
14272;SDS011;7220;49.450;11.052;2023-03-11T07:50:21;5.60;;;2.30;;
14272;SDS011;7220;49.450;11.052;2023-03-11T07:54:21;3.40;;;2.22;;
14272;SDS011;7220;49.450;11.052;2023-03-11T07:58:22;2.20;;;2.10;;
14272;SDS011;7220;49.450;11.052;2023-03-11T08:02:22;2.53;;;2.20;;
14272;SDS011;7220;49.450;11.052;2023-03-11T08:06:24;3.13;;;1.90;;
14272;SDS011;7220;49.450;11.052;2023-03-11T08:10:26;2.90;;;2.60;;
14272;SDS011;7220;49.450;11.052;2023-03-11T08:14:26;2.45;;;2.10;;
14272;SDS011;7220;49.450;11.052;2023-03-11T08:18:27;3.47;;;2.20;;
14272;SDS011;7220;49.450;11.052;2023-03-11T08:22:27;2.53;;;2.20;;
14272;SDS011;7220;49.450;11.052;2023-03-11T08:26:29;3.00;;;2.33;;
14272;SDS011;7220;49.450;11.052;2023-03-11T08:30:29;3.08;;;2.78;;
14272;SDS011;7220;49.450;11.052;2023-03-11T08:34:30;2.70;;;1.98;;
14272;SDS011;7220;49.450;11.052;2023-03-11T08:38:31;2.75;;;1.88;;
14272;SDS011;7220;49.450;11.052;2023-03-11T08:42:32;6.13;;;2.35;;
14272;SDS011;7220;49.450;11.052;2023-03-11T08:46:33;3.55;;;2.30;;
14272;SDS011;7220;49.450;11.052;2023-03-11T08:50:41;2.28;;;1.90;;
14272;SDS011;7220;49.450;11.052;2023-03-11T08:54:42;3.30;;;1.95;;
14272;SDS011;7220;49.450;11.052;2023-03-11T08:58:42;2.08;;;1.85;;
14272;SDS011;7220;49.450;11.052;2023-03-11T09:02:42;2.47;;;1.98;;
14272;SDS011;7220;49.450;11.052;2023-03-11T09:06:43;2.55;;;1.92;;
14272;SDS011;7220;49.450;11.052;2023-03-11T09:10:43;2.38;;;2.08;;
14272;SDS011;7220;49.450;11.052;2023-03-11T09:14:43;1.85;;;1.73;;
14272;SDS011;7220;49.450;11.052;2023-03-11T09:18:44;3.03;;;1.63;;
14272;SDS011;7220;49.450;11.052;2023-03-11T09:22:44;3.95;;;1.80;;
14272;SDS011;7220;49.450;11.052;2023-03-11T09:26:45;4.55;;;1.70;;
14272;SDS011;7220;49.450;11.052;2023-03-11T09:30:45;2.78;;;2.20;;
14272;SDS011;7220;49.450;11.052;2023-03-11T09:34:46;2.38;;;1.83;;
14272;SDS011;7220;49.450;11.052;2023-03-11T09:38:46;2.00;;;1.70;;
14272;SDS011;7220;49.450;11.052;2023-03-11T09:51:27;3.42;;;1.60;;
14272;SDS011;7220;49.450;11.052;2023-03-11T09:59:36;1.70;;;1.60;;
14272;SDS011;7220;49.450;11.052;2023-03-11T10:03:39;2.22;;;1.60;;
14272;SDS011;7220;49.450;11.052;2023-03-11T10:07:40;3.92;;;2.13;;
14272;SDS011;7220;49.450;11.052;2023-03-11T10:16:10;2.38;;;2.22;;
14272;SDS011;7220;49.450;11.052;2023-03-11T10:20:29;4.07;;;2.85;;
14272;SDS011;7220;49.450;11.052;2023-03-11T10:29:13;3.13;;;2.83;;
14272;SDS011;7220;49.450;11.052;2023-03-11T10:37:38;4.03;;;2.50;;
14272;SDS011;7220;49.450;11.052;2023-03-11T10:41:49;2.78;;;2.33;;
14272;SDS011;7220;49.450;11.052;2023-03-11T10:45:53;2.67;;;1.92;;
14272;SDS011;7220;49.450;11.052;2023-03-11T10:49:53;2.60;;;1.50;;
14272;SDS011;7220;49.450;11.052;2023-03-11T10:53:55;2.15;;;1.92;;
14272;SDS011;7220;49.450;11.052;2023-03-11T10:58:04;2.55;;;1.75;;
14272;SDS011;7220;49.450;11.052;2023-03-11T11:02:19;2.20;;;1.90;;
14272;SDS011;7220;49.450;11.052;2023-03-11T11:10:34;1.70;;;1.60;;
14272;SDS011;7220;49.450;11.052;2023-03-11T11:14:45;1.88;;;1.77;;
14272;SDS011;7220;49.450;11.052;2023-03-11T11:18:47;3.95;;;1.67;;
14272;SDS011;7220;49.450;11.052;2023-03-11T11:22:54;2.60;;;1.85;;
14272;SDS011;7220;49.450;11.052;2023-03-11T11:27:14;2.40;;;1.77;;
14272;SDS011;7220;49.450;11.052;2023-03-11T11:31:19;2.35;;;1.52;;
14272;SDS011;7220;49.450;11.052;2023-03-11T11:35:23;1.70;;;1.60;;
14272;SDS011;7220;49.450;11.052;2023-03-11T11:39:25;3.85;;;1.67;;
14272;SDS011;7220;49.450;11.052;2023-03-11T11:47:34;1.70;;;1.60;;
14272;SDS011;7220;49.450;11.052;2023-03-11T11:55:48;3.55;;;1.58;;
14272;SDS011;7220;49.450;11.052;2023-03-11T11:59:51;2.55;;;1.90;;
14272;SDS011;7220;49.450;11.052;2023-03-11T12:12:18;1.70;;;1.60;;
14272;SDS011;7220;49.450;11.052;2023-03-11T12:20:41;4.85;;;1.88;;
14272;SDS011;7220;49.450;11.052;2023-03-11T12:24:49;3.70;;;2.05;;
14272;SDS011;7220;49.450;11.052;2023-03-11T12:32:56;3.10;;;2.13;;
14272;SDS011;7220;49.450;11.052;2023-03-11T12:37:00;3.63;;;2.40;;
14272;SDS011;7220;49.450;11.052;2023-03-11T12:49:49;2.78;;;1.90;;
14272;SDS011;7220;49.450;11.052;2023-03-11T12:53:54;2.42;;;1.95;;
14272;SDS011;7220;49.450;11.052;2023-03-11T12:58:00;2.30;;;2.10;;
14272;SDS011;7220;49.450;11.052;2023-03-11T13:11:24;3.95;;;2.30;;
14272;SDS011;7220;49.450;11.052;2023-03-11T13:15:35;2.15;;;1.95;;
14272;SDS011;7220;49.450;11.052;2023-03-11T13:19:36;2.42;;;2.22;;
14272;SDS011;7220;49.450;11.052;2023-03-11T13:23:46;2.40;;;2.15;;
14272;SDS011;7220;49.450;11.052;2023-03-11T13:27:47;2.47;;;2.25;;
14272;SDS011;7220;49.450;11.052;2023-03-11T13:31:55;2.28;;;2.05;;
14272;SDS011;7220;49.450;11.052;2023-03-11T13:36:01;3.53;;;2.47;;
14272;SDS011;7220;49.450;11.052;2023-03-11T13:40:30;2.08;;;1.95;;
14272;SDS011;7220;49.450;11.052;2023-03-11T13:44:35;2.00;;;1.85;;
14272;SDS011;7220;49.450;11.052;2023-03-11T13:48:43;2.38;;;1.90;;
14272;SDS011;7220;49.450;11.052;2023-03-11T13:52:47;3.28;;;2.15;;
14272;SDS011;7220;49.450;11.052;2023-03-11T13:56:56;8.98;;;3.80;;
14272;SDS011;7220;49.450;11.052;2023-03-11T14:00:58;4.00;;;2.58;;
14272;SDS011;7220;49.450;11.052;2023-03-11T14:05:06;3.08;;;2.33;;
14272;SDS011;7220;49.450;11.052;2023-03-11T14:09:17;2.42;;;2.22;;
14272;SDS011;7220;49.450;11.052;2023-03-11T14:13:19;2.83;;;2.38;;
14272;SDS011;7220;49.450;11.052;2023-03-11T14:17:21;2.78;;;1.95;;
14272;SDS011;7220;49.450;11.052;2023-03-11T14:21:21;3.10;;;2.38;;
14272;SDS011;7220;49.450;11.052;2023-03-11T14:25:25;5.28;;;3.58;;
14272;SDS011;7220;49.450;11.052;2023-03-11T14:29:38;3.03;;;2.00;;
14272;SDS011;7220;49.450;11.052;2023-03-11T14:33:39;2.67;;;2.22;;
14272;SDS011;7220;49.450;11.052;2023-03-11T14:37:39;2.67;;;2.47;;
14272;SDS011;7220;49.450;11.052;2023-03-11T14:41:40;2.75;;;2.55;;
14272;SDS011;7220;49.450;11.052;2023-03-11T14:45:40;2.88;;;2.13;;
14272;SDS011;7220;49.450;11.052;2023-03-11T14:49:42;3.35;;;2.20;;
14272;SDS011;7220;49.450;11.052;2023-03-11T14:53:52;3.20;;;2.38;;
14272;SDS011;7220;49.450;11.052;2023-03-11T15:02:26;4.80;;;2.65;;
14272;SDS011;7220;49.450;11.052;2023-03-11T15:06:30;4.30;;;2.42;;
14272;SDS011;7220;49.450;11.052;2023-03-11T15:10:33;3.88;;;2.10;;
14272;SDS011;7220;49.450;11.052;2023-03-11T15:14:36;3.20;;;2.22;;
14272;SDS011;7220;49.450;11.052;2023-03-11T15:18:48;2.92;;;2.55;;
14272;SDS011;7220;49.450;11.052;2023-03-11T15:22:52;2.78;;;1.85;;
14272;SDS011;7220;49.450;11.052;2023-03-11T15:35:21;4.50;;;2.20;;
14272;SDS011;7220;49.450;11.052;2023-03-11T15:43:46;2.60;;;2.10;;
14272;SDS011;7220;49.450;11.052;2023-03-11T15:47:48;2.30;;;2.10;;
14272;SDS011;7220;49.450;11.052;2023-03-11T15:51:49;4.90;;;2.65;;
14272;SDS011;7220;49.450;11.052;2023-03-11T15:55:50;2.42;;;2.17;;
14272;SDS011;7220;49.450;11.052;2023-03-11T15:59:52;5.13;;;2.35;;
14272;SDS011;7220;49.450;11.052;2023-03-11T16:03:54;3.60;;;2.30;;
14272;SDS011;7220;49.450;11.052;2023-03-11T16:07:55;2.45;;;2.25;;
14272;SDS011;7220;49.450;11.052;2023-03-11T16:11:55;3.75;;;2.50;;
14272;SDS011;7220;49.450;11.052;2023-03-11T16:15:55;3.10;;;2.47;;
14272;SDS011;7220;49.450;11.052;2023-03-11T16:19:56;3.53;;;2.30;;
14272;SDS011;7220;49.450;11.052;2023-03-11T16:23:56;3.28;;;2.35;;
14272;SDS011;7220;49.450;11.052;2023-03-11T16:27:57;2.50;;;2.25;;
14272;SDS011;7220;49.450;11.052;2023-03-11T16:31:57;3.40;;;2.28;;
14272;SDS011;7220;49.450;11.052;2023-03-11T16:35:58;2.92;;;2.45;;
14272;SDS011;7220;49.450;11.052;2023-03-11T16:39:58;2.80;;;2.58;;
14272;SDS011;7220;49.450;11.052;2023-03-11T16:43:58;3.50;;;2.15;;
14272;SDS011;7220;49.450;11.052;2023-03-11T16:47:59;2.97;;;2.55;;
14272;SDS011;7220;49.450;11.052;2023-03-11T16:51:59;3.60;;;2.72;;
14272;SDS011;7220;49.450;11.052;2023-03-11T16:55:59;2.97;;;2.67;;
14272;SDS011;7220;49.450;11.052;2023-03-11T17:00:00;5.60;;;3.03;;
14272;SDS011;7220;49.450;11.052;2023-03-11T17:04:00;3.13;;;2.45;;
14272;SDS011;7220;49.450;11.052;2023-03-11T17:08:01;2.80;;;2.47;;
14272;SDS011;7220;49.450;11.052;2023-03-11T17:12:04;5.07;;;2.58;;
14272;SDS011;7220;49.450;11.052;2023-03-11T17:16:04;2.20;;;2.00;;
14272;SDS011;7220;49.450;11.052;2023-03-11T17:20:05;6.25;;;2.40;;
14272;SDS011;7220;49.450;11.052;2023-03-11T17:24:07;5.00;;;2.75;;
14272;SDS011;7220;49.450;11.052;2023-03-11T17:28:09;3.03;;;2.70;;
14272;SDS011;7220;49.450;11.052;2023-03-11T17:32:09;3.35;;;2.55;;
14272;SDS011;7220;49.450;11.052;2023-03-11T17:36:14;3.67;;;2.60;;
14272;SDS011;7220;49.450;11.052;2023-03-11T17:40:15;3.10;;;2.78;;
14272;SDS011;7220;49.450;11.052;2023-03-11T17:44:16;6.18;;;3.70;;
14272;SDS011;7220;49.450;11.052;2023-03-11T17:48:16;5.60;;;3.30;;
14272;SDS011;7220;49.450;11.052;2023-03-11T17:52:17;5.07;;;2.80;;
14272;SDS011;7220;49.450;11.052;2023-03-11T17:56:18;5.68;;;3.08;;
14272;SDS011;7220;49.450;11.052;2023-03-11T18:00:22;4.80;;;3.30;;
14272;SDS011;7220;49.450;11.052;2023-03-11T18:04:22;4.25;;;3.42;;
14272;SDS011;7220;49.450;11.052;2023-03-11T18:08:23;4.20;;;3.28;;
14272;SDS011;7220;49.450;11.052;2023-03-11T18:12:23;9.50;;;4.93;;
14272;SDS011;7220;49.450;11.052;2023-03-11T18:16:24;6.78;;;4.32;;
14272;SDS011;7220;49.450;11.052;2023-03-11T18:20:27;4.53;;;3.22;;
14272;SDS011;7220;49.450;11.052;2023-03-11T18:24:27;7.25;;;3.72;;
14272;SDS011;7220;49.450;11.052;2023-03-11T18:28:28;5.93;;;2.67;;
14272;SDS011;7220;49.450;11.052;2023-03-11T18:32:28;3.97;;;3.47;;
14272;SDS011;7220;49.450;11.052;2023-03-11T18:36:29;3.70;;;2.95;;
14272;SDS011;7220;49.450;11.052;2023-03-11T18:40:31;5.63;;;3.50;;
14272;SDS011;7220;49.450;11.052;2023-03-11T18:44:31;6.28;;;3.90;;
14272;SDS011;7220;49.450;11.052;2023-03-11T18:48:32;5.43;;;3.50;;
14272;SDS011;7220;49.450;11.052;2023-03-11T18:52:32;4.10;;;3.10;;
14272;SDS011;7220;49.450;11.052;2023-03-11T18:56:33;5.38;;;2.92;;
14272;SDS011;7220;49.450;11.052;2023-03-11T19:00:33;5.13;;;2.55;;
14272;SDS011;7220;49.450;11.052;2023-03-11T19:04:33;5.75;;;2.88;;
14272;SDS011;7220;49.450;11.052;2023-03-11T19:08:34;4.75;;;2.80;;
14272;SDS011;7220;49.450;11.052;2023-03-11T19:12:34;6.75;;;3.45;;
14272;SDS011;7220;49.450;11.052;2023-03-11T19:16:36;4.82;;;3.15;;
14272;SDS011;7220;49.450;11.052;2023-03-11T19:20:36;5.38;;;3.03;;
14272;SDS011;7220;49.450;11.052;2023-03-11T19:24:37;2.83;;;2.63;;
14272;SDS011;7220;49.450;11.052;2023-03-11T19:28:37;6.03;;;3.58;;
14272;SDS011;7220;49.450;11.052;2023-03-11T19:32:37;9.50;;;5.50;;
14272;SDS011;7220;49.450;11.052;2023-03-11T19:36:38;7.80;;;5.90;;
14272;SDS011;7220;49.450;11.052;2023-03-11T19:40:38;8.40;;;6.28;;
14272;SDS011;7220;49.450;11.052;2023-03-11T19:44:39;7.15;;;6.03;;
14272;SDS011;7220;49.450;11.052;2023-03-11T19:48:39;10.25;;;6.68;;
14272;SDS011;7220;49.450;11.052;2023-03-11T19:52:40;9.80;;;6.60;;
14272;SDS011;7220;49.450;11.052;2023-03-11T19:56:40;11.55;;;7.28;;
14272;SDS011;7220;49.450;11.052;2023-03-11T20:00:42;8.98;;;6.55;;
14272;SDS011;7220;49.450;11.052;2023-03-11T20:04:43;9.13;;;5.40;;
14272;SDS011;7220;49.450;11.052;2023-03-11T20:08:43;11.18;;;7.45;;
14272;SDS011;7220;49.450;11.052;2023-03-11T20:12:44;24.45;;;13.73;;
14272;SDS011;7220;49.450;11.052;2023-03-11T20:16:44;33.80;;;20.83;;
14272;SDS011;7220;49.450;11.052;2023-03-11T20:20:45;34.58;;;20.55;;
14272;SDS011;7220;49.450;11.052;2023-03-11T20:24:45;19.95;;;14.48;;
14272;SDS011;7220;49.450;11.052;2023-03-11T20:28:46;12.75;;;10.23;;
14272;SDS011;7220;49.450;11.052;2023-03-11T20:32:46;15.65;;;11.25;;
14272;SDS011;7220;49.450;11.052;2023-03-11T20:36:47;17.30;;;11.30;;
14272;SDS011;7220;49.450;11.052;2023-03-11T20:40:56;14.52;;;11.77;;
14272;SDS011;7220;49.450;11.052;2023-03-11T20:44:56;13.23;;;10.18;;
14272;SDS011;7220;49.450;11.052;2023-03-11T20:48:57;12.25;;;10.15;;
14272;SDS011;7220;49.450;11.052;2023-03-11T20:52:57;13.18;;;9.35;;
14272;SDS011;7220;49.450;11.052;2023-03-11T20:56:57;17.83;;;11.55;;
14272;SDS011;7220;49.450;11.052;2023-03-11T21:00:58;16.00;;;11.95;;
14272;SDS011;7220;49.450;11.052;2023-03-11T21:04:58;16.38;;;11.23;;
14272;SDS011;7220;49.450;11.052;2023-03-11T21:09:03;13.55;;;10.25;;
14272;SDS011;7220;49.450;11.052;2023-03-11T21:13:05;16.92;;;10.45;;
14272;SDS011;7220;49.450;11.052;2023-03-11T21:17:06;13.93;;;10.57;;
14272;SDS011;7220;49.450;11.052;2023-03-11T21:21:06;15.90;;;10.75;;
14272;SDS011;7220;49.450;11.052;2023-03-11T21:25:09;13.10;;;10.20;;
14272;SDS011;7220;49.450;11.052;2023-03-11T21:29:09;10.55;;;8.77;;
14272;SDS011;7220;49.450;11.052;2023-03-11T21:33:10;13.70;;;10.35;;
14272;SDS011;7220;49.450;11.052;2023-03-11T21:37:12;13.02;;;11.30;;
14272;SDS011;7220;49.450;11.052;2023-03-11T21:41:14;18.30;;;12.52;;
14272;SDS011;7220;49.450;11.052;2023-03-11T21:45:25;17.10;;;12.85;;
14272;SDS011;7220;49.450;11.052;2023-03-11T21:49:25;16.17;;;11.32;;
14272;SDS011;7220;49.450;11.052;2023-03-11T21:53:25;15.77;;;10.65;;
14272;SDS011;7220;49.450;11.052;2023-03-11T21:57:26;14.48;;;11.50;;
14272;SDS011;7220;49.450;11.052;2023-03-11T22:01:27;14.60;;;9.25;;
14272;SDS011;7220;49.450;11.052;2023-03-11T22:05:27;12.98;;;9.40;;
14272;SDS011;7220;49.450;11.052;2023-03-11T22:09:27;12.05;;;9.35;;
14272;SDS011;7220;49.450;11.052;2023-03-11T22:13:28;12.05;;;9.52;;
14272;SDS011;7220;49.450;11.052;2023-03-11T22:17:28;14.48;;;10.85;;
14272;SDS011;7220;49.450;11.052;2023-03-11T22:21:28;14.70;;;11.13;;
14272;SDS011;7220;49.450;11.052;2023-03-11T22:25:29;14.37;;;10.73;;
14272;SDS011;7220;49.450;11.052;2023-03-11T22:29:29;14.30;;;10.53;;
14272;SDS011;7220;49.450;11.052;2023-03-11T22:33:29;19.02;;;10.30;;
14272;SDS011;7220;49.450;11.052;2023-03-11T22:37:30;16.33;;;9.98;;
14272;SDS011;7220;49.450;11.052;2023-03-11T22:41:30;14.37;;;9.83;;
14272;SDS011;7220;49.450;11.052;2023-03-11T22:45:31;13.02;;;9.80;;
14272;SDS011;7220;49.450;11.052;2023-03-11T22:49:32;12.77;;;9.00;;
14272;SDS011;7220;49.450;11.052;2023-03-11T22:53:32;10.50;;;8.47;;
14272;SDS011;7220;49.450;11.052;2023-03-11T22:57:33;9.80;;;8.77;;
14272;SDS011;7220;49.450;11.052;2023-03-11T23:01:37;11.13;;;8.27;;
14272;SDS011;7220;49.450;11.052;2023-03-11T23:05:37;12.33;;;9.20;;
14272;SDS011;7220;49.450;11.052;2023-03-11T23:09:41;9.83;;;8.37;;
14272;SDS011;7220;49.450;11.052;2023-03-11T23:13:42;13.35;;;9.07;;
14272;SDS011;7220;49.450;11.052;2023-03-11T23:17:43;14.33;;;9.83;;
14272;SDS011;7220;49.450;11.052;2023-03-11T23:21:44;15.03;;;10.23;;
14272;SDS011;7220;49.450;11.052;2023-03-11T23:25:44;13.53;;;10.17;;
14272;SDS011;7220;49.450;11.052;2023-03-11T23:29:44;14.13;;;10.60;;
14272;SDS011;7220;49.450;11.052;2023-03-11T23:33:46;15.57;;;11.52;;
14272;SDS011;7220;49.450;11.052;2023-03-11T23:37:47;14.37;;;11.47;;
14272;SDS011;7220;49.450;11.052;2023-03-11T23:41:48;13.30;;;10.27;;
14272;SDS011;7220;49.450;11.052;2023-03-11T23:45:49;12.90;;;10.43;;
14272;SDS011;7220;49.450;11.052;2023-03-11T23:49:49;12.27;;;9.27;;
14272;SDS011;7220;49.450;11.052;2023-03-11T23:53:50;15.97;;;10.33;;
14272;SDS011;7220;49.450;11.052;2023-03-11T23:57:50;12.10;;;9.87;;
